Cincinnati, Ohio
Traffic Map
Current Weather Conditions
Cincinnati, Ohio
Clear
Clear
32°
Feels Like: 32°
Wind Chill: 32° Ceiling: Unl
Heat Index: 32° Visibility: 10mi
Dew Point: 18° Wind: 10mph
Humidity: 43% Direction: 340° (NNW)
Pressure: 30.01in Gusts: 0mph
Raw Report DataKLUK 271953Z 34009KT 10SM CLR 32/18 A3001 RMK AO2 SLP156 T03170178
Traffic Incident Summary
Active as of:
Severity:
Category:
InformationThere was an issue retrieving the traffic information for this location. Please try a different location or try again shortly.
Advertisements
Track Severe Weather on mobile